• Join FlightAware (Why Join?)
  • Login
  • US Flag 
12:43AM EDT


 

Airport Tracker/Info


-or-


 

Live Flight TrackerFlight Track Log ✈ SKW4659 ✈ 17-Jul-2013 ✈ KGRR - KMSP

Flight Track Log - Related Links

Times and Time Zones

All times are in EDT time to prevent confusion due to time zone crossing. See the SKW4659 flight status page for this flight to view local times or setup timezone preferences in your user account.

Time Position Orientation Groundspeed Altitude Reporting Facility
EDT Latitude Longitude Course Direction KTS MPH feet Rate Location/Type
10:20AM 42.8683 -85.5961 304° West 202 232 3,700  Level Chicago Center
10:21AM 43.0857 -85.8584 311° West  Level FlightAware Approximate
10:21AM 42.9153 -85.6625 314° West 246 283 5,300  Level Chicago Center
10:22AM 43.1614 -85.9733 314° West  Level FlightAware Approximate
10:22AM 42.9703 -85.7561 309° West 263 303 8,500  Level Chicago Center
10:23AM 43.2397 -86.0852 314° West  Level FlightAware Approximate
10:23AM 43.0242 -85.8331 314° West 282 325 10,500  Level Chicago Center
10:24AM 43.3012 -86.1857 305° West  Level FlightAware Approximate
10:24AM 43.0822 -85.9167 314° West 308 354 12,200  Level Chicago Center
10:25AM 43.1394 -86.0039 312° West 318 366 14,100 1,920 Climbing Chicago Center
10:26AM 43.2114 -86.1117 313° West 322 371 16,200 1,740 Climbing Chicago Center
10:27AM 43.2733 -86.2047 312° West 331 381 17,700 1,200 Climbing Chicago Center
10:28AM 43.3367 -86.2994 313° West 336 387 18,700 1,020 Climbing Chicago Center
10:29AM 43.4022 -86.3975 313° West 348 400 19,900 1,200 Climbing Chicago Center
10:30AM 43.4689 -86.4986 312° West 356 410 21,200 1,200 Climbing Chicago Center
10:31AM 43.5497 -86.6236 312° West 365 420 22,500 1,140 Climbing Chicago Center
10:32AM 43.6203 -86.7286 313° West 373 429 23,600 960 Climbing Chicago Center
10:33AM 43.6928 -86.8336 314° West 379 436 24,500 900 Climbing Chicago Center
10:34AM 43.7636 -86.9439 312° West 384 442 25,500 720 Climbing Chicago Center
10:35AM 43.8339 -87.0564 311° West 387 445 26,000 240 Climbing Chicago Center
10:36AM 43.9064 -87.1689 312° West 392 451 26,000  Level Chicago Center
10:37AM 43.9492 -87.2350 312° West 390 449 26,000  Level Minneapolis Center
10:38AM 44.0219 -87.3475 312° West 388 447 26,000  Level Minneapolis Center
10:39AM 44.0928 -87.4594 311° West 386 444 26,000  Level Minneapolis Center
10:40AM 44.1758 -87.5894 312° West 386 444 26,000  Level Minneapolis Center
10:41AM 44.2450 -87.6986 312° West 379 436 26,000  Level Minneapolis Center
10:42AM 44.3117 -87.8047 311° West 368 423 26,000  Level Minneapolis Center
10:43AM 44.3767 -87.9083 311° West 359 413 26,000  Level Minneapolis Center
10:44AM 44.4400 -88.0100 311° West 351 404 26,000  Level Minneapolis Center
10:45AM 44.5122 -88.1275 311° West 342 394 26,000  Level Minneapolis Center
10:46AM 44.5606 -88.2408 301° West 347 399 26,000  Level Minneapolis Center
10:47AM 44.5756 -88.3700 279° West 340 391 26,000  Level Minneapolis Center
10:48AM 44.5903 -88.5000 279° West 342 394 26,000  Level Minneapolis Center
10:49AM 44.6067 -88.6328 280° West 346 398 26,000  Level Minneapolis Center
10:50AM 44.6244 -88.7853 279° West 342 394 26,000  Level Minneapolis Center
10:51AM 44.6397 -88.9186 279° West 345 397 26,000  Level Minneapolis Center
10:52AM 44.6517 -89.0306 279° West 350 403 26,000  Level Minneapolis Center
10:53AM 44.6686 -89.1847 279° West 346 398 26,000  Level Minneapolis Center
10:54AM 44.6836 -89.3186 279° West 349 402 26,000  Level Minneapolis Center
10:55AM 44.6992 -89.4733 278° West 344 396 26,000  Level Minneapolis Center
10:57AM 44.7147 -89.6067 279° West 346 398 26,000  Level Minneapolis Center
10:58AM 44.7292 -89.7394 279° West 344 396 26,000  Level Minneapolis Center
10:59AM 44.7436 -89.8508 280° West 349 402 26,000  Level Minneapolis Center
11:00AM 44.7647 -90.0064 281° West 347 399 26,000  Level Minneapolis Center
11:01AM 44.7858 -90.1617 281° West 347 399 26,000  Level Minneapolis Center
11:02AM 44.8003 -90.2731 280° West 348 400 26,000  Level Minneapolis Center
11:03AM 44.8214 -90.4322 281° West 352 405 26,000  Level Minneapolis Center
11:04AM 44.8386 -90.5683 280° West 352 405 26,000  Level Minneapolis Center
11:05AM 44.8578 -90.7042 281° West 354 407 26,000  Level Minneapolis Center
11:06AM 44.8750 -90.8414 280° West 357 411 26,000  Level Minneapolis Center
11:07AM 44.8956 -91.0042 280° West 352 405 26,000  Level Minneapolis Center
11:08AM 44.9125 -91.1417 280° West 355 409 26,000  Level Minneapolis Center
11:09AM 44.9289 -91.2786 280° West 355 409 26,000  Level Minneapolis Center
11:10AM 44.9461 -91.4161 280° West 358 412 26,000 -660 Level Minneapolis Center
11:11AM 44.9636 -91.5531 280° West 356 410 24,700 -2,280 Descending Minneapolis Center
11:12AM 44.9847 -91.7253 280° West 367 422 21,400 -2,880 Descending Minneapolis Center
11:13AM 45.0011 -91.8653 279° West 366 421 18,800 -2,400 Descending Minneapolis Center
11:14AM 45.0164 -91.9989 279° West 348 400 16,500 -2,340 Descending Minneapolis Center
11:15AM 45.0311 -92.1286 279° West 337 388 14,000 -2,220 Descending Minneapolis Center
11:16AM 45.0422 -92.2272 279° West 324 373 12,000 -1,080 Descending Minneapolis Center
11:18AM 45.0133 -92.5019 262° West 285 328 10,700 -960 Descending Minneapolis Center
11:19AM 44.9733 -92.5900 237° Southwest 266 306 9,100 -1,620 Descending Minneapolis Center
11:20AM 44.9361 -92.6761 239° Southwest 259 298 7,400 -1,020 Descending Minneapolis Center
11:21AM 44.8997 -92.7586 238° Southwest 249 287 7,000 -720 Descending Minneapolis Center
11:22AM 44.8639 -92.8419 239° Southwest 250 288 6,000 -900 Descending Minneapolis Center
11:23AM 44.8369 -92.9069 240° Southwest 242 278 5,200 -780 Descending Minneapolis Center